Pagrindinis puslapis
METAR-TAF:

METAR-TAF

Oro uostai :

Diego Garsija, Indijos Vandenyno Britų Sritis

platuma: 07-18S, ilguma: 072-24E, Aukštis: 1 m

Dabartinis oras

Ataskaita buvo paskelbta 50 minutes, ne 11:55 UTC
Vėjas 6 kt iš Rytų/Šiaurės Rytų
Temperatūra 32°C
Drėgmė 63%
Slėgis 1009 hPa
Matomumas 10 km arba daugiau
Mažai debesys ne aukštis 2600 ft
Išsisklaidę debesys ne aukštis 24000 ft

METAR: FJDG 151155Z 07006KT 9999 FEW026 SCT240 32/24 A2981 RMK SLP091 8/102 T03150241 10344 20315 56007

Laikas: 18:45 (12:45 UTC)

Prognozė

Ataskaita buvo paskelbta 3 valandos ir 45 minutes, ne 09:00 UTC
Prognozė galioja nuo 15 metu 09 UTC su 16 metu 15 UTC
Vėjas 6 kt iš Rytų
Matomumas 10 km arba daugiau
Mažai debesys ne aukštis 3000 ft
Išsisklaidę debesys ne aukštis 25000 ft

TAF: FJDG 150900Z 1509/1615 08006KT 9999 FEW030 SCT250 QNH2979INS TX35/1509Z TN27/1523Z

Orai ataskaitas ir orų prognozės (METAR, TAF).

turimą stotys yra geltonos ir raudonos taškus žemėlapyje.

Perkelti pele per norėdami pamatyti stoties vardą.

Tada spustelėkite, norėdami matyti oro stebėjimo ir prognozės.

Norėdami pakeisti žemėlapį: spustelėkite ant žalios mygtukų su juodo kryžiaus žemyn,; žalią mygtuką su brūkšneliu, jei norite nutolinti; arba žalių rodyklių gretimoms žemėlapius.


METAR-TAF: